sensor_id;sensor_type;location;lat;lon;timestamp;pressure;altitude;pressure_sealevel;temperature;humidity
39613;BME280;25303;48.896;13.342;2023-08-31T00:00:10;92296.53;;;13.61;73.95
39613;BME280;25303;48.896;13.342;2023-08-31T00:02:54;92298.06;;;13.56;74.28
39613;BME280;25303;48.896;13.342;2023-08-31T00:05:37;92302.03;;;13.51;73.98
39613;BME280;25303;48.896;13.342;2023-08-31T00:08:22;92308.75;;;13.46;74.55
39613;BME280;25303;48.896;13.342;2023-08-31T00:11:06;92306.88;;;13.40;74.78
39613;BME280;25303;48.896;13.342;2023-08-31T00:13:49;92302.97;;;13.44;74.54
39613;BME280;25303;48.896;13.342;2023-08-31T00:16:33;92298.94;;;13.41;74.57
39613;BME280;25303;48.896;13.342;2023-08-31T00:19:18;92308.50;;;13.41;74.73
39613;BME280;25303;48.896;13.342;2023-08-31T00:22:01;92295.75;;;13.39;74.45
39613;BME280;25303;48.896;13.342;2023-08-31T00:24:45;92296.28;;;13.34;74.20
39613;BME280;25303;48.896;13.342;2023-08-31T00:27:30;92300.25;;;13.30;74.25
39613;BME280;25303;48.896;13.342;2023-08-31T00:30:13;92301.22;;;13.29;74.47
39613;BME280;25303;48.896;13.342;2023-08-31T00:32:56;92302.00;;;13.30;74.59
39613;BME280;25303;48.896;13.342;2023-08-31T00:35:42;92305.41;;;13.30;74.58
39613;BME280;25303;48.896;13.342;2023-08-31T00:38:25;92299.75;;;13.20;74.84
39613;BME280;25303;48.896;13.342;2023-08-31T00:41:08;92303.94;;;13.21;74.64
39613;BME280;25303;48.896;13.342;2023-08-31T00:43:53;92300.81;;;13.04;75.66
39613;BME280;25303;48.896;13.342;2023-08-31T00:46:36;92304.50;;;13.16;75.39
39613;BME280;25303;48.896;13.342;2023-08-31T00:49:19;92301.91;;;13.16;75.03
39613;BME280;25303;48.896;13.342;2023-08-31T00:52:02;92308.94;;;13.22;75.09
39613;BME280;25303;48.896;13.342;2023-08-31T00:54:46;92315.13;;;13.28;75.23
39613;BME280;25303;48.896;13.342;2023-08-31T00:57:30;92313.34;;;13.29;74.99
39613;BME280;25303;48.896;13.342;2023-08-31T01:00:15;92311.16;;;13.32;74.92
39613;BME280;25303;48.896;13.342;2023-08-31T01:02:59;92319.75;;;13.33;75.03
39613;BME280;25303;48.896;13.342;2023-08-31T01:05:50;92317.88;;;13.27;75.29
39613;BME280;25303;48.896;13.342;2023-08-31T01:08:40;92318.34;;;13.30;75.08
39613;BME280;25303;48.896;13.342;2023-08-31T01:11:31;92320.53;;;13.33;75.11
39613;BME280;25303;48.896;13.342;2023-08-31T01:14:18;92315.34;;;13.33;75.02
39613;BME280;25303;48.896;13.342;2023-08-31T01:17:04;92312.41;;;13.36;75.03
39613;BME280;25303;48.896;13.342;2023-08-31T01:19:48;92313.03;;;13.38;74.94
39613;BME280;25303;48.896;13.342;2023-08-31T01:22:38;92310.44;;;13.38;74.46
39613;BME280;25303;48.896;13.342;2023-08-31T01:25:24;92305.47;;;13.37;74.58
39613;BME280;25303;48.896;13.342;2023-08-31T01:28:11;92305.84;;;13.34;74.66
39613;BME280;25303;48.896;13.342;2023-08-31T01:30:54;92309.41;;;13.33;74.43
39613;BME280;25303;48.896;13.342;2023-08-31T01:33:37;92310.38;;;13.32;74.26
39613;BME280;25303;48.896;13.342;2023-08-31T01:36:24;92314.78;;;13.31;74.20
39613;BME280;25303;48.896;13.342;2023-08-31T01:39:14;92319.13;;;13.31;74.18
39613;BME280;25303;48.896;13.342;2023-08-31T01:42:03;92321.72;;;13.31;73.92
39613;BME280;25303;48.896;13.342;2023-08-31T01:44:48;92334.28;;;13.34;74.11
39613;BME280;25303;48.896;13.342;2023-08-31T01:47:31;92327.13;;;13.36;74.13
39613;BME280;25303;48.896;13.342;2023-08-31T01:50:14;92325.31;;;13.36;74.13
39613;BME280;25303;48.896;13.342;2023-08-31T01:52:58;92331.75;;;13.41;74.20
39613;BME280;25303;48.896;13.342;2023-08-31T01:55:41;92331.19;;;13.45;73.90
39613;BME280;25303;48.896;13.342;2023-08-31T01:58:25;92327.47;;;13.48;74.02
39613;BME280;25303;48.896;13.342;2023-08-31T02:01:08;92327.25;;;13.49;73.75
39613;BME280;25303;48.896;13.342;2023-08-31T02:03:53;92327.06;;;13.51;73.73
39613;BME280;25303;48.896;13.342;2023-08-31T02:06:36;92325.91;;;13.54;73.64
39613;BME280;25303;48.896;13.342;2023-08-31T02:09:21;92325.53;;;13.57;73.55
39613;BME280;25303;48.896;13.342;2023-08-31T02:12:04;92325.72;;;13.55;73.86
39613;BME280;25303;48.896;13.342;2023-08-31T02:14:49;92320.53;;;13.55;73.73
39613;BME280;25303;48.896;13.342;2023-08-31T02:17:33;92317.34;;;13.53;73.71
39613;BME280;25303;48.896;13.342;2023-08-31T02:20:17;92320.72;;;13.54;73.67
39613;BME280;25303;48.896;13.342;2023-08-31T02:23:02;92320.69;;;13.47;73.67
39613;BME280;25303;48.896;13.342;2023-08-31T02:25:45;92330.22;;;13.46;73.42
39613;BME280;25303;48.896;13.342;2023-08-31T02:28:29;92331.31;;;13.37;73.24
39613;BME280;25303;48.896;13.342;2023-08-31T02:31:14;92327.69;;;13.31;73.24
39613;BME280;25303;48.896;13.342;2023-08-31T02:33:58;92322.03;;;13.21;73.53
39613;BME280;25303;48.896;13.342;2023-08-31T02:36:41;92324.53;;;13.14;73.52
39613;BME280;25303;48.896;13.342;2023-08-31T02:39:24;92328.25;;;13.05;73.41
39613;BME280;25303;48.896;13.342;2023-08-31T02:42:06;92321.84;;;13.01;73.81
39613;BME280;25303;48.896;13.342;2023-08-31T02:44:52;92331.00;;;13.03;73.65
39613;BME280;25303;48.896;13.342;2023-08-31T02:47:37;92341.59;;;13.09;73.72
39613;BME280;25303;48.896;13.342;2023-08-31T02:50:20;92340.25;;;13.13;73.79
39613;BME280;25303;48.896;13.342;2023-08-31T02:53:03;92345.03;;;13.16;73.62
39613;BME280;25303;48.896;13.342;2023-08-31T02:55:46;92339.50;;;13.19;73.68
39613;BME280;25303;48.896;13.342;2023-08-31T02:58:29;92345.13;;;13.22;73.71
39613;BME280;25303;48.896;13.342;2023-08-31T03:01:13;92341.34;;;13.25;73.78
39613;BME280;25303;48.896;13.342;2023-08-31T03:04:02;92336.44;;;13.30;73.66
39613;BME280;25303;48.896;13.342;2023-08-31T03:06:45;92341.22;;;13.33;73.64
39613;BME280;25303;48.896;13.342;2023-08-31T03:09:28;92351.19;;;13.36;73.70
39613;BME280;25303;48.896;13.342;2023-08-31T03:12:11;92343.25;;;13.38;73.43
39613;BME280;25303;48.896;13.342;2023-08-31T03:14:54;92344.69;;;13.41;73.46
39613;BME280;25303;48.896;13.342;2023-08-31T03:17:37;92347.06;;;13.42;73.49
39613;BME280;25303;48.896;13.342;2023-08-31T03:20:22;92352.88;;;13.44;73.38
39613;BME280;25303;48.896;13.342;2023-08-31T03:23:05;92347.53;;;13.46;73.41
39613;BME280;25303;48.896;13.342;2023-08-31T03:25:50;92352.50;;;13.47;73.42
39613;BME280;25303;48.896;13.342;2023-08-31T03:28:33;92351.50;;;13.48;73.19
39613;BME280;25303;48.896;13.342;2023-08-31T03:31:16;92349.72;;;13.49;73.09
39613;BME280;25303;48.896;13.342;2023-08-31T03:33:59;92352.31;;;13.49;73.17
39613;BME280;25303;48.896;13.342;2023-08-31T03:36:43;92363.81;;;13.46;73.28
39613;BME280;25303;48.896;13.342;2023-08-31T03:39:26;92362.06;;;13.47;73.29
39613;BME280;25303;48.896;13.342;2023-08-31T03:42:09;92369.00;;;13.46;73.21
39613;BME280;25303;48.896;13.342;2023-08-31T03:44:52;92369.97;;;13.45;73.14
39613;BME280;25303;48.896;13.342;2023-08-31T03:47:35;92371.78;;;13.45;73.23
39613;BME280;25303;48.896;13.342;2023-08-31T03:50:18;92374.38;;;13.45;73.24
39613;BME280;25303;48.896;13.342;2023-08-31T03:53:03;92370.81;;;13.46;73.22
39613;BME280;25303;48.896;13.342;2023-08-31T03:55:46;92368.22;;;13.46;73.28
39613;BME280;25303;48.896;13.342;2023-08-31T03:58:29;92371.78;;;13.45;73.14
39613;BME280;25303;48.896;13.342;2023-08-31T04:01:12;92376.34;;;13.43;73.30
39613;BME280;25303;48.896;13.342;2023-08-31T04:03:56;92382.50;;;13.42;73.26
39613;BME280;25303;48.896;13.342;2023-08-31T04:06:39;92368.13;;;13.39;73.28
39613;BME280;25303;48.896;13.342;2023-08-31T04:09:23;92380.53;;;13.44;73.11
39613;BME280;25303;48.896;13.342;2023-08-31T04:12:07;92377.94;;;13.44;73.04
39613;BME280;25303;48.896;13.342;2023-08-31T04:14:50;92396.03;;;13.44;73.08
39613;BME280;25303;48.896;13.342;2023-08-31T04:17:33;92409.94;;;13.43;72.96
39613;BME280;25303;48.896;13.342;2023-08-31T04:20:16;92399.00;;;13.41;73.06
39613;BME280;25303;48.896;13.342;2023-08-31T04:22:59;92391.03;;;13.42;73.21
39613;BME280;25303;48.896;13.342;2023-08-31T04:25:43;92399.41;;;13.44;73.10
39613;BME280;25303;48.896;13.342;2023-08-31T04:28:26;92393.09;;;13.47;73.12
39613;BME280;25303;48.896;13.342;2023-08-31T04:31:10;92391.28;;;13.47;72.97
39613;BME280;25303;48.896;13.342;2023-08-31T04:33:53;92380.94;;;13.47;73.20
39613;BME280;25303;48.896;13.342;2023-08-31T04:36:36;92390.31;;;13.48;72.92
39613;BME280;25303;48.896;13.342;2023-08-31T04:39:19;92392.09;;;13.48;73.12
39613;BME280;25303;48.896;13.342;2023-08-31T04:42:04;92401.25;;;13.50;72.83
39613;BME280;25303;48.896;13.342;2023-08-31T04:44:47;92399.47;;;13.51;72.84
39613;BME280;25303;48.896;13.342;2023-08-31T04:47:30;92402.88;;;13.51;72.99
39613;BME280;25303;48.896;13.342;2023-08-31T04:50:13;92404.63;;;13.51;72.75
39613;BME280;25303;48.896;13.342;2023-08-31T04:52:56;92410.63;;;13.51;72.86
39613;BME280;25303;48.896;13.342;2023-08-31T04:55:39;92406.84;;;13.54;72.99
39613;BME280;25303;48.896;13.342;2023-08-31T04:58:24;92416.22;;;13.55;72.83
39613;BME280;25303;48.896;13.342;2023-08-31T05:01:07;92421.22;;;13.57;72.68
39613;BME280;25303;48.896;13.342;2023-08-31T05:03:51;92419.44;;;13.57;72.94
39613;BME280;25303;48.896;13.342;2023-08-31T05:06:34;92429.56;;;13.59;72.85
39613;BME280;25303;48.896;13.342;2023-08-31T05:09:17;92432.97;;;13.59;72.72
39613;BME280;25303;48.896;13.342;2023-08-31T05:12:01;92437.94;;;13.61;72.93
39613;BME280;25303;48.896;13.342;2023-08-31T05:14:45;92435.19;;;13.62;72.92
39613;BME280;25303;48.896;13.342;2023-08-31T05:17:28;92440.78;;;13.66;72.78
39613;BME280;25303;48.896;13.342;2023-08-31T05:20:12;92439.81;;;13.67;72.76
39613;BME280;25303;48.896;13.342;2023-08-31T05:22:55;92432.66;;;13.69;72.82
39613;BME280;25303;48.896;13.342;2023-08-31T05:25:41;92444.41;;;13.72;72.86
39613;BME280;25303;48.896;13.342;2023-08-31T05:28:24;92452.19;;;13.72;72.59
39613;BME280;25303;48.896;13.342;2023-08-31T05:31:09;92452.38;;;13.70;72.66
39613;BME280;25303;48.896;13.342;2023-08-31T05:33:52;92448.97;;;13.70;72.51
39613;BME280;25303;48.896;13.342;2023-08-31T05:36:35;92453.34;;;13.69;72.59
39613;BME280;25303;48.896;13.342;2023-08-31T05:39:18;92458.91;;;13.66;72.69
39613;BME280;25303;48.896;13.342;2023-08-31T05:42:01;92459.25;;;13.63;72.73
39613;BME280;25303;48.896;13.342;2023-08-31T05:44:44;92464.19;;;13.58;72.67
39613;BME280;25303;48.896;13.342;2023-08-31T05:47:29;92474.09;;;13.54;72.79
39613;BME280;25303;48.896;13.342;2023-08-31T05:50:11;92477.50;;;13.55;72.84
39613;BME280;25303;48.896;13.342;2023-08-31T05:52:55;92477.50;;;13.55;72.92
39613;BME280;25303;48.896;13.342;2023-08-31T05:55:38;92483.41;;;13.48;73.28
39613;BME280;25303;48.896;13.342;2023-08-31T05:58:21;92483.41;;;13.48;73.00
39613;BME280;25303;48.896;13.342;2023-08-31T06:01:05;92491.16;;;13.48;73.22
39613;BME280;25303;48.896;13.342;2023-08-31T06:03:50;92492.19;;;13.54;73.19
39613;BME280;25303;48.896;13.342;2023-08-31T06:06:33;92494.84;;;13.61;73.16
39613;BME280;25303;48.896;13.342;2023-08-31T06:09:16;92491.91;;;13.64;73.21
39613;BME280;25303;48.896;13.342;2023-08-31T06:11:59;92487.00;;;13.69;72.91
39613;BME280;25303;48.896;13.342;2023-08-31T06:14:42;92480.00;;;13.70;72.87
39613;BME280;25303;48.896;13.342;2023-08-31T06:17:25;92487.06;;;13.76;72.88
39613;BME280;25303;48.896;13.342;2023-08-31T06:20:11;92482.28;;;13.79;73.00
39613;BME280;25303;48.896;13.342;2023-08-31T06:22:54;92488.97;;;13.89;72.70
39613;BME280;25303;48.896;13.342;2023-08-31T06:25:37;92497.16;;;13.92;72.82
39613;BME280;25303;48.896;13.342;2023-08-31T06:28:20;92507.13;;;13.95;72.47
39613;BME280;25303;48.896;13.342;2023-08-31T06:31:03;92504.34;;;13.97;72.70
39613;BME280;25303;48.896;13.342;2023-08-31T06:33:46;92510.72;;;13.94;72.96
39613;BME280;25303;48.896;13.342;2023-08-31T06:36:30;92510.72;;;13.94;72.61
39613;BME280;25303;48.896;13.342;2023-08-31T06:39:13;92508.34;;;14.00;72.42
39613;BME280;25303;48.896;13.342;2023-08-31T06:41:57;92510.41;;;14.04;72.43
39613;BME280;25303;48.896;13.342;2023-08-31T06:44:44;92512.78;;;14.06;72.30
39613;BME280;25303;48.896;13.342;2023-08-31T06:47:27;92521.53;;;14.05;71.96
39613;BME280;25303;48.896;13.342;2023-08-31T06:50:10;92524.31;;;14.03;71.90
39613;BME280;25303;48.896;13.342;2023-08-31T06:52:54;92538.66;;;14.06;72.10
39613;BME280;25303;48.896;13.342;2023-08-31T06:55:37;92526.97;;;14.10;71.46
39613;BME280;25303;48.896;13.342;2023-08-31T06:58:20;92535.56;;;14.17;71.42
39613;BME280;25303;48.896;13.342;2023-08-31T07:01:05;92540.59;;;14.19;71.68
39613;BME280;25303;48.896;13.342;2023-08-31T07:03:48;92540.75;;;14.17;71.22
39613;BME280;25303;48.896;13.342;2023-08-31T07:06:33;92541.75;;;14.16;71.49
39613;BME280;25303;48.896;13.342;2023-08-31T07:09:17;92539.16;;;14.16;71.67
39613;BME280;25303;48.896;13.342;2023-08-31T07:12:00;92547.63;;;14.03;71.38
39613;BME280;25303;48.896;13.342;2023-08-31T07:14:44;92545.88;;;14.10;71.18
39613;BME280;25303;48.896;13.342;2023-08-31T07:17:27;92537.94;;;14.12;70.89
39613;BME280;25303;48.896;13.342;2023-08-31T07:20:11;92536.75;;;14.15;70.75
39613;BME280;25303;48.896;13.342;2023-08-31T07:22:54;92551.66;;;14.12;70.61
39613;BME280;25303;48.896;13.342;2023-08-31T07:25:38;92560.97;;;14.28;70.93
39613;BME280;25303;48.896;13.342;2023-08-31T07:28:21;92562.28;;;14.39;70.81
39613;BME280;25303;48.896;13.342;2023-08-31T07:31:06;92564.28;;;14.44;69.85
39613;BME280;25303;48.896;13.342;2023-08-31T07:33:50;92561.88;;;14.42;69.60
39613;BME280;25303;48.896;13.342;2023-08-31T07:36:33;92564.50;;;14.49;69.47
39613;BME280;25303;48.896;13.342;2023-08-31T07:39:16;92570.16;;;14.53;69.58
39613;BME280;25303;48.896;13.342;2023-08-31T07:42:01;92576.09;;;14.53;69.44
39613;BME280;25303;48.896;13.342;2023-08-31T07:44:45;92576.34;;;14.58;69.24
39613;BME280;25303;48.896;13.342;2023-08-31T07:47:28;92581.91;;;14.55;69.11
39613;BME280;25303;48.896;13.342;2023-08-31T07:50:14;92586.22;;;14.48;69.43
39613;BME280;25303;48.896;13.342;2023-08-31T07:52:57;92586.72;;;14.58;69.78
39613;BME280;25303;48.896;13.342;2023-08-31T07:55:40;92590.66;;;14.54;68.74
39613;BME280;25303;48.896;13.342;2023-08-31T07:58:25;92587.38;;;14.67;68.79
39613;BME280;25303;48.896;13.342;2023-08-31T08:01:08;92582.03;;;14.69;68.14
39613;BME280;25303;48.896;13.342;2023-08-31T08:03:51;92590.06;;;14.74;67.87
39613;BME280;25303;48.896;13.342;2023-08-31T08:06:34;92585.28;;;14.78;68.28
39613;BME280;25303;48.896;13.342;2023-08-31T08:09:17;92590.13;;;14.87;68.25
39613;BME280;25303;48.896;13.342;2023-08-31T08:12:00;92589.59;;;14.99;68.28
39613;BME280;25303;48.896;13.342;2023-08-31T08:14:44;92589.59;;;14.99;67.61
39613;BME280;25303;48.896;13.342;2023-08-31T08:17:27;92594.28;;;15.10;67.20
39613;BME280;25303;48.896;13.342;2023-08-31T08:20:11;92603.19;;;15.01;66.72
39613;BME280;25303;48.896;13.342;2023-08-31T08:22:54;92601.78;;;14.98;66.47
39613;BME280;25303;48.896;13.342;2023-08-31T08:25:39;92612.09;;;14.92;64.41
39613;BME280;25303;48.896;13.342;2023-08-31T08:28:22;92605.16;;;14.99;65.37
39613;BME280;25303;48.896;13.342;2023-08-31T08:31:06;92613.78;;;15.06;65.15
39613;BME280;25303;48.896;13.342;2023-08-31T08:33:49;92616.84;;;15.16;65.38
39613;BME280;25303;48.896;13.342;2023-08-31T08:36:32;92618.69;;;15.23;64.97
39613;BME280;25303;48.896;13.342;2023-08-31T08:39:15;92626.19;;;15.11;63.42
39613;BME280;25303;48.896;13.342;2023-08-31T08:41:59;92624.63;;;15.16;63.46
39613;BME280;25303;48.896;13.342;2023-08-31T08:44:42;92632.78;;;15.13;63.35
39613;BME280;25303;48.896;13.342;2023-08-31T08:47:28;92630.38;;;15.12;63.52
39613;BME280;25303;48.896;13.342;2023-08-31T08:50:12;92632.41;;;14.88;63.02
39613;BME280;25303;48.896;13.342;2023-08-31T08:52:55;92634.34;;;14.79;62.99
39613;BME280;25303;48.896;13.342;2023-08-31T08:55:39;92639.66;;;14.71;63.35
39613;BME280;25303;48.896;13.342;2023-08-31T08:58:23;92645.94;;;14.62;63.08
39613;BME280;25303;48.896;13.342;2023-08-31T09:01:07;92650.13;;;14.63;63.03
39613;BME280;25303;48.896;13.342;2023-08-31T09:03:52;92656.28;;;14.62;63.22
39613;BME280;25303;48.896;13.342;2023-08-31T09:06:35;92671.94;;;14.53;63.37
39613;BME280;25303;48.896;13.342;2023-08-31T09:09:18;92670.84;;;14.63;63.78
39613;BME280;25303;48.896;13.342;2023-08-31T09:12:09;92670.19;;;14.54;63.87
39613;BME280;25303;48.896;13.342;2023-08-31T09:14:59;92666.22;;;14.58;63.62
39613;BME280;25303;48.896;13.342;2023-08-31T09:17:43;92672.88;;;14.67;64.19
39613;BME280;25303;48.896;13.342;2023-08-31T09:20:28;92672.41;;;14.79;64.28
39613;BME280;25303;48.896;13.342;2023-08-31T09:23:11;92655.75;;;14.88;63.41
39613;BME280;25303;48.896;13.342;2023-08-31T09:25:56;92649.38;;;15.19;64.37
39613;BME280;25303;48.896;13.342;2023-08-31T09:28:40;92656.94;;;15.49;64.68
39613;BME280;25303;48.896;13.342;2023-08-31T09:31:29;92663.69;;;15.78;63.80
39613;BME280;25303;48.896;13.342;2023-08-31T09:34:14;92665.97;;;15.95;63.15
39613;BME280;25303;48.896;13.342;2023-08-31T09:37:04;92662.38;;;15.96;61.58
39613;BME280;25303;48.896;13.342;2023-08-31T09:39:47;92659.25;;;16.14;61.68
39613;BME280;25303;48.896;13.342;2023-08-31T09:42:36;92662.63;;;16.15;59.58
39613;BME280;25303;48.896;13.342;2023-08-31T09:45:25;92670.03;;;16.18;60.24
39613;BME280;25303;48.896;13.342;2023-08-31T09:48:26;92672.00;;;16.09;59.70
39613;BME280;25303;48.896;13.342;2023-08-31T09:51:10;92673.19;;;16.00;59.42
39613;BME280;25303;48.896;13.342;2023-08-31T09:53:57;92678.31;;;15.86;58.65
39613;BME280;25303;48.896;13.342;2023-08-31T09:56:41;92681.75;;;15.65;58.65
39613;BME280;25303;48.896;13.342;2023-08-31T09:59:26;92680.13;;;15.57;58.57
39613;BME280;25303;48.896;13.342;2023-08-31T10:02:10;92690.16;;;15.32;56.11
39613;BME280;25303;48.896;13.342;2023-08-31T10:04:56;92697.09;;;15.25;58.64
39613;BME280;25303;48.896;13.342;2023-08-31T10:07:40;92692.03;;;15.16;58.98
39613;BME280;25303;48.896;13.342;2023-08-31T10:10:26;92692.44;;;15.13;58.47
39613;BME280;25303;48.896;13.342;2023-08-31T10:13:11;92694.81;;;15.15;58.71
39613;BME280;25303;48.896;13.342;2023-08-31T10:15:55;92689.03;;;15.13;58.63
39613;BME280;25303;48.896;13.342;2023-08-31T10:18:38;92690.88;;;15.19;58.69
39613;BME280;25303;48.896;13.342;2023-08-31T10:21:22;92692.28;;;15.22;58.47
39613;BME280;25303;48.896;13.342;2023-08-31T10:24:05;92695.16;;;15.33;59.06
39613;BME280;25303;48.896;13.342;2023-08-31T10:26:49;92691.06;;;15.53;59.51
39613;BME280;25303;48.896;13.342;2023-08-31T10:29:32;92695.63;;;15.79;58.83
39613;BME280;25303;48.896;13.342;2023-08-31T10:32:17;92698.34;;;16.06;58.67
39613;BME280;25303;48.896;13.342;2023-08-31T10:35:08;92695.03;;;16.25;57.56
39613;BME280;25303;48.896;13.342;2023-08-31T10:38:13;92697.88;;;16.44;56.84
39613;BME280;25303;48.896;13.342;2023-08-31T10:41:17;92696.50;;;16.48;55.89
39613;BME280;25303;48.896;13.342;2023-08-31T10:44:17;92691.47;;;16.33;55.01
39613;BME280;25303;48.896;13.342;2023-08-31T10:47:03;92697.53;;;15.99;55.39
39613;BME280;25303;48.896;13.342;2023-08-31T10:49:50;92701.75;;;16.00;55.52
39613;BME280;25303;48.896;13.342;2023-08-31T10:52:43;92687.63;;;15.80;54.36
39613;BME280;25303;48.896;13.342;2023-08-31T10:55:31;92705.34;;;16.05;56.57
39613;BME280;25303;48.896;13.342;2023-08-31T10:58:14;92694.78;;;16.14;56.05
39613;BME280;25303;48.896;13.342;2023-08-31T11:00:58;92701.66;;;16.28;56.24
39613;BME280;25303;48.896;13.342;2023-08-31T11:03:57;92708.06;;;16.39;54.96
39613;BME280;25303;48.896;13.342;2023-08-31T11:06:40;92704.09;;;16.56;55.72
39613;BME280;25303;48.896;13.342;2023-08-31T11:09:23;92693.72;;;16.63;55.73
39613;BME280;25303;48.896;13.342;2023-08-31T11:12:07;92697.34;;;16.62;55.46
39613;BME280;25303;48.896;13.342;2023-08-31T11:14:50;92689.81;;;17.14;56.05
39613;BME280;25303;48.896;13.342;2023-08-31T11:17:36;92678.75;;;17.46;54.98
39613;BME280;25303;48.896;13.342;2023-08-31T11:20:23;92681.56;;;17.44;53.49
39613;BME280;25303;48.896;13.342;2023-08-31T11:23:10;92682.38;;;17.45;53.79
39613;BME280;25303;48.896;13.342;2023-08-31T11:25:54;92694.59;;;17.38;54.20
39613;BME280;25303;48.896;13.342;2023-08-31T11:28:37;92698.59;;;17.40;54.14
39613;BME280;25303;48.896;13.342;2023-08-31T11:31:23;92697.59;;;17.28;54.10
39613;BME280;25303;48.896;13.342;2023-08-31T11:34:12;92705.19;;;17.16;53.05
39613;BME280;25303;48.896;13.342;2023-08-31T11:36:55;92701.00;;;17.01;53.78
39613;BME280;25303;48.896;13.342;2023-08-31T11:39:38;92708.56;;;16.90;53.37
39613;BME280;25303;48.896;13.342;2023-08-31T11:42:22;92703.72;;;16.73;53.77
39613;BME280;25303;48.896;13.342;2023-08-31T11:45:06;92702.13;;;16.72;53.92
39613;BME280;25303;48.896;13.342;2023-08-31T11:47:50;92715.72;;;16.61;53.54
39613;BME280;25303;48.896;13.342;2023-08-31T11:50:35;92714.31;;;16.51;53.80
39613;BME280;25303;48.896;13.342;2023-08-31T11:53:18;92713.50;;;16.51;54.07
39613;BME280;25303;48.896;13.342;2023-08-31T11:56:02;92715.13;;;16.65;54.49
39613;BME280;25303;48.896;13.342;2023-08-31T11:58:45;92710.59;;;16.94;53.82
39613;BME280;25303;48.896;13.342;2023-08-31T12:01:46;92706.78;;;17.30;53.15
39613;BME280;25303;48.896;13.342;2023-08-31T12:04:30;92709.41;;;17.24;53.00
39613;BME280;25303;48.896;13.342;2023-08-31T12:07:18;92705.38;;;17.61;53.07
39613;BME280;25303;48.896;13.342;2023-08-31T12:10:05;92699.91;;;17.83;51.47
39613;BME280;25303;48.896;13.342;2023-08-31T12:12:48;92705.28;;;18.02;51.80
39613;BME280;25303;48.896;13.342;2023-08-31T12:15:31;92714.06;;;18.14;52.02
39613;BME280;25303;48.896;13.342;2023-08-31T12:18:14;92715.06;;;18.20;51.54
39613;BME280;25303;48.896;13.342;2023-08-31T12:20:57;92712.44;;;18.27;50.92
39613;BME280;25303;48.896;13.342;2023-08-31T12:23:42;92708.16;;;18.39;50.01
39613;BME280;25303;48.896;13.342;2023-08-31T12:26:25;92710.03;;;18.64;50.10
39613;BME280;25303;48.896;13.342;2023-08-31T12:29:08;92708.28;;;18.90;49.38
39613;BME280;25303;48.896;13.342;2023-08-31T12:31:51;92713.44;;;19.03;48.60
39613;BME280;25303;48.896;13.342;2023-08-31T12:34:33;92714.13;;;19.42;49.16
39613;BME280;25303;48.896;13.342;2023-08-31T12:37:16;92693.19;;;19.49;47.17
39613;BME280;25303;48.896;13.342;2023-08-31T12:40:01;92708.47;;;19.46;47.12
39613;BME280;25303;48.896;13.342;2023-08-31T12:42:47;92709.94;;;19.41;46.37
39613;BME280;25303;48.896;13.342;2023-08-31T12:45:30;92702.97;;;19.54;46.54
39613;BME280;25303;48.896;13.342;2023-08-31T12:48:13;92714.50;;;19.46;46.54
39613;BME280;25303;48.896;13.342;2023-08-31T12:50:56;92692.63;;;19.66;46.70
39613;BME280;25303;48.896;13.342;2023-08-31T12:53:39;92695.88;;;19.61;46.13
39613;BME280;25303;48.896;13.342;2023-08-31T12:56:23;92703.28;;;19.64;46.52
39613;BME280;25303;48.896;13.342;2023-08-31T12:59:06;92699.88;;;19.64;46.46
39613;BME280;25303;48.896;13.342;2023-08-31T13:01:49;92698.56;;;19.29;45.91
39613;BME280;25303;48.896;13.342;2023-08-31T13:04:32;92699.44;;;19.23;46.43
39613;BME280;25303;48.896;13.342;2023-08-31T13:07:16;92706.66;;;19.21;46.30
39613;BME280;25303;48.896;13.342;2023-08-31T13:09:59;92703.47;;;19.44;46.27
39613;BME280;25303;48.896;13.342;2023-08-31T13:12:44;92698.47;;;19.61;45.99
39613;BME280;25303;48.896;13.342;2023-08-31T13:15:27;92704.22;;;19.70;46.13
39613;BME280;25303;48.896;13.342;2023-08-31T13:18:11;92700.38;;;19.54;45.44
39613;BME280;25303;48.896;13.342;2023-08-31T13:20:55;92706.63;;;19.27;45.52
39613;BME280;25303;48.896;13.342;2023-08-31T13:23:38;92702.75;;;19.05;45.73
39613;BME280;25303;48.896;13.342;2023-08-31T13:26:24;92706.66;;;18.95;45.85
39613;BME280;25303;48.896;13.342;2023-08-31T13:29:08;92714.31;;;18.83;45.79
39613;BME280;25303;48.896;13.342;2023-08-31T13:31:51;92719.84;;;18.62;46.12
39613;BME280;25303;48.896;13.342;2023-08-31T13:34:34;92717.44;;;18.67;46.50
39613;BME280;25303;48.896;13.342;2023-08-31T13:37:18;92713.34;;;18.46;46.53
39613;BME280;25303;48.896;13.342;2023-08-31T13:40:01;92714.56;;;18.43;46.73
39613;BME280;25303;48.896;13.342;2023-08-31T13:42:53;92716.94;;;18.45;46.80
39613;BME280;25303;48.896;13.342;2023-08-31T13:45:39;92714.34;;;18.45;47.92
39613;BME280;25303;48.896;13.342;2023-08-31T13:48:22;92708.03;;;18.59;47.68
39613;BME280;25303;48.896;13.342;2023-08-31T13:51:05;92715.94;;;18.46;47.36
39613;BME280;25303;48.896;13.342;2023-08-31T13:53:49;92717.31;;;18.48;46.95
39613;BME280;25303;48.896;13.342;2023-08-31T13:56:31;92722.47;;;18.62;47.67
39613;BME280;25303;48.896;13.342;2023-08-31T13:59:14;92712.47;;;18.59;47.15
39613;BME280;25303;48.896;13.342;2023-08-31T14:01:59;92706.75;;;18.43;47.42
39613;BME280;25303;48.896;13.342;2023-08-31T14:04:42;92722.50;;;18.55;47.18
39613;BME280;25303;48.896;13.342;2023-08-31T14:07:25;92721.19;;;18.39;47.54
39613;BME280;25303;48.896;13.342;2023-08-31T14:10:09;92717.88;;;18.12;47.37
39613;BME280;25303;48.896;13.342;2023-08-31T14:12:52;92721.31;;;17.99;47.73
39613;BME280;25303;48.896;13.342;2023-08-31T14:15:35;92716.88;;;18.13;48.37
39613;BME280;25303;48.896;13.342;2023-08-31T14:18:19;92719.47;;;18.13;48.15